Time;durP1;ratioP1;P1;durP2;ratioP2;P2;SDS_P1;SDS_P2;PMS_P1;PMS_P2;Temp;Humidity;BMP_temperature;BMP_pressure;BME280_temperature;BME280_humidity;BME280_pressure;Samples;Min_cycle;Max_cycle;Signal;HPM_P1;HPM_P2
2021/07/13 00:01:06;;;;;;;4.57;2.40;;;;;;;17.12;100.00;95214.19;5010575;28;20413;-74
2021/07/13 00:03:33;;;;;;;6.43;2.45;;;;;;;17.26;100.00;95212.03;5010641;28;20906;-74
2021/07/13 00:05:59;;;;;;;6.38;2.50;;;;;;;17.14;100.00;95227.13;5010195;28;20463;-74
2021/07/13 00:08:24;;;;;;;3.20;2.40;;;;;;;16.94;100.00;95221.22;5010471;28;20786;-74
2021/07/13 00:10:49;;;;;;;4.30;2.80;;;;;;;17.03;100.00;95225.56;5010605;28;20895;-74
2021/07/13 00:13:15;;;;;;;7.32;2.75;;;;;;;17.12;100.00;95229.88;5010649;28;20425;-74
2021/07/13 00:15:43;;;;;;;5.10;2.90;;;;;;;17.28;100.00;95231.00;5014037;28;20420;-74
2021/07/13 00:18:10;;;;;;;5.78;2.60;;;;;;;17.33;100.00;95218.31;5012814;28;20452;-74
2021/07/13 00:20:36;;;;;;;3.53;2.67;;;;;;;17.59;100.00;95221.78;5012733;28;20519;-74
2021/07/13 00:23:02;;;;;;;4.35;2.72;;;;;;;17.56;100.00;95211.59;5012639;28;20783;-74
2021/07/13 00:25:29;;;;;;;4.10;2.50;;;;;;;17.47;100.00;95202.06;5013617;28;20420;-75
2021/07/13 00:27:54;;;;;;;4.07;2.85;;;;;;;17.43;100.00;95182.41;5012633;28;20512;-74
2021/07/13 00:30:20;;;;;;;4.37;2.30;;;;;;;17.53;100.00;95177.06;5013851;28;20507;-74
2021/07/13 00:32:48;;;;;;;4.05;2.63;;;;;;;17.58;100.00;95187.91;5013883;28;20524;-74
2021/07/13 00:35:14;;;;;;;3.88;2.50;;;;;;;17.53;100.00;95185.72;5013390;28;20467;-74
2021/07/13 00:37:41;;;;;;;5.25;2.92;;;;;;;17.45;100.00;95174.38;5012473;28;20424;-74
2021/07/13 00:40:09;;;;;;;3.55;2.58;;;;;;;17.48;100.00;95169.66;5013554;28;20445;-74
2021/07/13 00:42:35;;;;;;;2.85;2.28;;;;;;;17.35;100.00;95157.00;5013543;28;20830;-74
2021/07/13 00:45:00;;;;;;;3.20;2.30;;;;;;;17.34;100.00;95163.16;5013423;28;20479;-74
2021/07/13 00:47:27;;;;;;;3.73;2.30;;;;;;;17.29;100.00;95162.81;5013279;28;20413;-74
2021/07/13 00:49:53;;;;;;;3.47;2.55;;;;;;;17.44;100.00;95154.41;5013505;28;20428;-74
2021/07/13 00:52:19;;;;;;;7.65;2.35;;;;;;;17.34;100.00;95159.75;5013248;28;20452;-73
2021/07/13 00:54:47;;;;;;;3.55;1.85;;;;;;;17.32;100.00;95169.56;5013038;28;20628;-73
2021/07/13 00:57:15;;;;;;;4.30;1.95;;;;;;;17.33;100.00;95184.28;5013081;28;20879;-73
2021/07/13 00:59:40;;;;;;;2.55;1.70;;;;;;;17.41;100.00;95192.19;5013337;28;20432;-74
2021/07/13 01:02:08;;;;;;;3.93;2.30;;;;;;;17.33;100.00;95192.94;5013196;28;20843;-74
2021/07/13 01:04:35;;;;;;;4.25;2.03;;;;;;;17.20;100.00;95182.03;5011779;28;20432;-74
2021/07/13 01:07:06;;;;;;;3.45;1.65;;;;;;;17.07;100.00;95179.00;5012841;28;20427;-74
2021/07/13 01:09:43;;;;;;;2.08;1.60;;;;;;;17.02;100.00;95178.59;5013145;28;20425;-73
2021/07/13 01:12:17;;;;;;;3.28;1.77;;;;;;;17.05;100.00;95175.69;5011813;28;20456;-74
2021/07/13 01:14:49;;;;;;;1.98;1.73;;;;;;;17.17;100.00;95177.13;5012933;28;20409;-74
2021/07/13 01:17:22;;;;;;;2.63;1.70;;;;;;;17.37;100.00;95185.63;5012737;28;20409;-74
2021/07/13 01:20:14;;;;;;;2.00;1.45;;;;;;;17.37;100.00;95183.00;5012840;28;20448;-74
2021/07/13 01:22:45;;;;;;;1.73;1.52;;;;;;;17.46;100.00;95203.00;5012852;28;20417;-74
2021/07/13 01:25:12;;;;;;;2.03;1.45;;;;;;;17.57;100.00;95208.00;5010641;28;20432;-74
2021/07/13 01:27:45;;;;;;;3.13;1.52;;;;;;;17.50;100.00;95221.84;5011592;28;20424;-74
2021/07/13 01:30:15;;;;;;;4.05;1.73;;;;;;;17.28;100.00;95231.84;5012624;28;20437;-74
2021/07/13 01:32:45;;;;;;;4.35;2.00;;;;;;;17.16;100.00;95230.41;5012780;28;20463;-74
2021/07/13 01:35:15;;;;;;;4.63;2.10;;;;;;;17.11;100.00;95230.03;5011239;28;20791;-73
2021/07/13 01:37:44;;;;;;;4.18;2.00;;;;;;;17.15;100.00;95239.25;5012912;28;20455;-74
2021/07/13 01:40:11;;;;;;;3.58;1.65;;;;;;;17.25;100.00;95253.06;5011513;28;20425;-74
2021/07/13 01:42:39;;;;;;;6.72;1.50;;;;;;;17.33;100.00;95266.22;5011156;28;20524;-74
2021/07/13 01:45:06;;;;;;;4.57;1.60;;;;;;;17.45;100.00;95260.75;5012324;28;20434;-74
2021/07/13 01:47:34;;;;;;;1.85;1.60;;;;;;;17.43;100.00;95263.56;5012494;28;20420;-74
2021/07/13 01:49:59;;;;;;;6.70;1.90;;;;;;;17.30;100.00;95258.69;5011232;28;20786;-74
2021/07/13 01:52:27;;;;;;;2.58;2.00;;;;;;;17.16;100.00;95246.94;5012500;28;20416;-74
2021/07/13 01:54:54;;;;;;;2.22;1.88;;;;;;;16.97;100.00;95249.69;5012265;28;20692;-74
2021/07/13 01:57:21;;;;;;;2.55;1.73;;;;;;;16.97;100.00;95256.72;5027433;23;20444;-77
2021/07/13 01:59:47;;;;;;;2.83;1.80;;;;;;;17.09;100.00;95260.75;5012462;28;20412;-77
2021/07/13 02:02:14;;;;;;;2.53;2.00;;;;;;;17.19;100.00;95266.75;5012320;28;20417;-77
2021/07/13 02:04:43;;;;;;;1.77;1.55;;;;;;;17.20;100.00;95250.06;5010863;28;20460;-77
2021/07/13 02:07:11;;;;;;;2.70;1.70;;;;;;;16.99;100.00;95239.91;5012065;28;20420;-77
2021/07/13 02:09:39;;;;;;;3.47;1.77;;;;;;;16.75;100.00;95231.81;5010956;28;20428;-78
2021/07/13 02:12:05;;;;;;;3.45;1.80;;;;;;;16.75;100.00;95235.22;5011988;28;20424;-77
2021/07/13 02:14:30;;;;;;;2.53;1.40;;;;;;;16.92;100.00;95238.84;5011953;28;20894;-77
2021/07/13 02:16:56;;;;;;;2.03;1.50;;;;;;;17.08;100.00;95240.81;5011675;28;20467;-78
2021/07/13 02:19:21;;;;;;;1.90;1.70;;;;;;;17.04;100.00;95231.63;5011926;28;20791;-77
2021/07/13 02:21:48;;;;;;;3.30;1.77;;;;;;;17.01;100.00;95235.34;5011799;28;20769;-77
2021/07/13 02:24:14;;;;;;;3.70;1.85;;;;;;;17.04;100.00;95232.44;5011723;28;20421;-77
2021/07/13 02:26:43;;;;;;;2.28;1.52;;;;;;;17.15;100.00;95236.63;5011372;28;20437;-78
2021/07/13 02:29:14;;;;;;;2.20;1.50;;;;;;;17.11;100.00;95236.09;5011723;28;20922;-77
2021/07/13 02:31:44;;;;;;;3.38;1.60;;;;;;;17.07;100.00;95240.00;5010446;28;20432;-77
2021/07/13 02:34:13;;;;;;;4.22;1.80;;;;;;;17.11;100.00;95228.25;5011722;28;20459;-78
2021/07/13 02:36:45;;;;;;;5.28;1.77;;;;;;;17.12;100.00;95227.28;5010806;28;20535;-77
2021/07/13 02:39:12;;;;;;;2.50;1.52;;;;;;;17.00;100.00;95222.41;5011194;28;20413;-77
2021/07/13 02:41:39;;;;;;;2.60;1.60;;;;;;;17.04;100.00;95223.75;5011437;28;20413;-77
2021/07/13 02:44:05;;;;;;;2.38;1.58;;;;;;;17.13;100.00;95220.25;5011416;28;20429;-77
2021/07/13 02:46:32;;;;;;;3.05;1.58;;;;;;;17.17;100.00;95211.97;5011182;28;20428;-77
2021/07/13 02:48:59;;;;;;;3.28;1.60;;;;;;;17.21;100.00;95209.06;5011379;28;20759;-77
2021/07/13 02:51:26;;;;;;;1.60;1.40;;;;;;;17.47;100.00;95204.69;5011231;28;20417;-77
2021/07/13 02:53:54;;;;;;;3.10;1.60;;;;;;;17.25;100.00;95202.53;5011350;28;20449;-77
2021/07/13 02:56:24;;;;;;;2.72;1.60;;;;;;;17.15;100.00;95195.56;5010921;28;20445;-77
2021/07/13 02:58:50;;;;;;;1.77;1.30;;;;;;;17.12;100.00;95182.78;5011258;28;20551;-77
2021/07/13 03:01:16;;;;;;;2.83;1.77;;;;;;;17.09;100.00;95177.88;5011279;28;20437;-77
2021/07/13 03:03:42;;;;;;;2.80;1.70;;;;;;;17.07;100.00;95176.38;5011595;28;20455;-77
2021/07/13 03:06:08;;;;;;;2.08;1.45;;;;;;;17.07;100.00;95169.34;5009449;28;20429;-77
2021/07/13 03:08:35;;;;;;;1.73;1.48;;;;;;;17.12;100.00;95158.41;5011152;28;20429;-77
2021/07/13 03:11:02;;;;;;;1.88;1.40;;;;;;;17.12;100.00;95151.38;5011395;28;20431;-77
2021/07/13 03:13:31;;;;;;;2.88;1.40;;;;;;;17.24;100.00;95131.03;5011791;28;20425;-77
2021/07/13 03:15:57;;;;;;;2.83;1.35;;;;;;;17.16;100.00;95115.28;5011057;28;20420;-77
2021/07/13 03:18:23;;;;;;;2.38;1.20;;;;;;;17.16;100.00;95110.03;5009643;28;20902;-77
2021/07/13 03:20:52;;;;;;;2.13;1.50;;;;;;;16.91;100.00;95101.22;5009718;28;20432;-77
2021/07/13 03:23:19;;;;;;;2.25;1.50;;;;;;;16.89;100.00;95093.50;5010933;28;20424;-78
2021/07/13 03:25:46;;;;;;;4.35;1.40;;;;;;;16.93;100.00;95100.06;5010693;28;20504;-77
2021/07/13 03:28:13;;;;;;;3.45;1.45;;;;;;;16.86;100.00;95092.97;5009683;28;20420;-77
2021/07/13 03:30:41;;;;;;;2.85;1.60;;;;;;;16.87;100.00;95085.00;5010915;28;20838;-77
2021/07/13 03:33:07;;;;;;;5.37;1.53;;;;;;;16.79;100.00;95082.28;5009553;28;20582;-77
2021/07/13 03:35:33;;;;;;;3.55;1.50;;;;;;;16.70;100.00;95059.66;5010586;28;20906;-77
2021/07/13 03:37:58;;;;;;;2.83;1.30;;;;;;;16.93;100.00;95060.84;5010905;28;20923;-77
2021/07/13 03:40:27;;;;;;;3.45;1.73;;;;;;;16.93;100.00;95045.13;5010754;28;20417;-77
2021/07/13 03:42:54;;;;;;;3.63;1.80;;;;;;;16.87;100.00;95045.78;5010722;28;20417;-77
2021/07/13 03:45:21;;;;;;;3.15;1.58;;;;;;;17.05;100.00;95039.66;5010928;28;20910;-77
2021/07/13 03:47:49;;;;;;;2.75;1.60;;;;;;;16.95;100.00;95033.72;5010703;28;20412;-77
2021/07/13 03:50:15;;;;;;;2.72;1.50;;;;;;;17.01;100.00;95040.94;5014411;28;20424;-78
2021/07/13 03:52:41;;;;;;;3.45;1.50;;;;;;;16.93;100.00;95046.94;5013328;28;20431;-77
2021/07/13 03:55:07;;;;;;;1.83;1.48;;;;;;;16.93;100.00;95046.94;5014601;28;20405;-78
2021/07/13 03:57:32;;;;;;;2.55;1.67;;;;;;;16.91;100.00;95041.88;5014446;28;20439;-77
2021/07/13 03:59:57;;;;;;;3.38;2.00;;;;;;;16.80;100.00;95042.13;5013212;28;20439;-77
2021/07/13 04:02:23;;;;;;;5.30;1.60;;;;;;;16.76;100.00;95043.41;5014233;28;20413;-77
2021/07/13 04:04:49;;;;;;;3.40;1.50;;;;;;;16.64;100.00;95047.16;5014300;28;20436;-77
2021/07/13 04:07:15;;;;;;;2.88;1.60;;;;;;;16.66;100.00;95050.47;5014035;28;20416;-78
2021/07/13 04:09:41;;;;;;;2.85;1.70;;;;;;;16.68;100.00;95059.78;5014343;28;20793;-78
2021/07/13 04:12:06;;;;;;;4.00;2.05;;;;;;;16.58;100.00;95060.88;5012364;28;20448;-78
2021/07/13 04:14:32;;;;;;;2.63;1.48;;;;;;;16.59;100.00;95054.66;5011386;28;20893;-78
2021/07/13 04:16:57;;;;;;;3.60;1.90;;;;;;;16.69;100.00;95060.63;5003886;28;20913;-77
2021/07/13 04:19:22;;;;;;;3.70;1.80;;;;;;;16.66;100.00;95063.53;4994569;28;20425;-77
2021/07/13 04:21:49;;;;;;;2.35;1.63;;;;;;;16.70;100.00;95065.69;4993287;28;20458;-77
2021/07/13 04:24:15;;;;;;;2.88;1.60;;;;;;;16.70;100.00;95070.09;4994546;28;20430;-77
2021/07/13 04:26:40;;;;;;;2.30;1.50;;;;;;;16.69;100.00;95064.06;4994060;28;20418;-77
2021/07/13 04:29:05;;;;;;;3.70;1.60;;;;;;;16.67;100.00;95073.84;5007793;28;20503;-77
2021/07/13 04:31:31;;;;;;;4.13;1.73;;;;;;;16.73;100.00;95076.84;4999804;28;20422;-76
2021/07/13 04:33:56;;;;;;;2.77;1.60;;;;;;;16.74;100.00;95068.88;5013267;28;20408;-76
2021/07/13 04:36:22;;;;;;;3.20;1.93;;;;;;;16.79;100.00;95077.06;5013743;28;20467;-75
2021/07/13 04:38:48;;;;;;;2.83;1.50;;;;;;;16.89;100.00;95082.22;5014098;28;20409;-72
2021/07/13 04:41:14;;;;;;;2.78;1.80;;;;;;;16.98;100.00;95080.47;5013742;28;20451;-72
2021/07/13 04:43:39;;;;;;;2.37;1.60;;;;;;;17.05;100.00;95076.28;5009075;28;20452;-72
2021/07/13 04:46:05;;;;;;;2.57;1.60;;;;;;;17.07;100.00;95075.16;5002564;28;20472;-72
2021/07/13 04:48:30;;;;;;;2.85;1.80;;;;;;;17.05;100.00;95079.72;4994093;28;20422;-72
2021/07/13 04:50:55;;;;;;;6.33;1.93;;;;;;;17.10;100.00;95077.47;4993979;28;20423;-72
2021/07/13 04:53:21;;;;;;;3.00;2.10;;;;;;;17.13;100.00;95079.78;4993789;28;20494;-73
2021/07/13 04:55:47;;;;;;;2.90;2.20;;;;;;;17.15;100.00;95080.44;4993520;28;20411;-74
2021/07/13 04:58:13;;;;;;;2.33;1.90;;;;;;;17.15;100.00;95093.53;4993977;28;20416;-74
2021/07/13 05:00:38;;;;;;;3.73;2.33;;;;;;;17.21;100.00;95086.88;4999683;28;20420;-72
2021/07/13 05:03:04;;;;;;;5.23;2.23;;;;;;;17.21;100.00;95079.03;5004980;28;20422;-70
2021/07/13 05:05:29;;;;;;;2.92;1.80;;;;;;;17.24;100.00;95089.16;5012847;28;20439;-70
2021/07/13 05:07:54;;;;;;;4.00;2.27;;;;;;;17.25;100.00;95079.53;5013255;28;20413;-70
2021/07/13 05:10:20;;;;;;;3.70;2.10;;;;;;;17.23;100.00;95087.53;5013137;28;20827;-70
2021/07/13 05:12:47;;;;;;;2.70;1.90;;;;;;;17.13;100.00;95089.41;5013030;28;20417;-70
2021/07/13 05:15:14;;;;;;;3.03;2.20;;;;;;;17.17;100.00;95091.59;5012754;28;20478;-72
2021/07/13 05:17:40;;;;;;;2.00;1.50;;;;;;;17.21;100.00;95076.41;5008269;28;20426;-75
2021/07/13 05:20:08;;;;;;;2.53;2.00;;;;;;;17.25;100.00;95092.63;5003363;28;20459;-73
2021/07/13 05:22:34;;;;;;;3.40;1.90;;;;;;;17.24;100.00;95083.09;5012229;28;20424;-73
2021/07/13 05:25:00;;;;;;;4.55;2.30;;;;;;;17.26;100.00;95083.78;5012700;28;20435;-73
2021/07/13 05:27:25;;;;;;;3.95;2.10;;;;;;;17.31;100.00;95078.91;5012467;28;20429;-73
2021/07/13 05:29:52;;;;;;;2.55;1.83;;;;;;;17.23;100.00;95076.25;5012564;28;20898;-73
2021/07/13 05:32:18;;;;;;;2.78;1.90;;;;;;;17.08;100.00;95081.22;5012673;28;20416;-73
2021/07/13 05:34:43;;;;;;;2.35;1.83;;;;;;;17.01;100.00;95073.16;5012688;28;20412;-73
2021/07/13 05:37:10;;;;;;;3.00;2.10;;;;;;;16.98;100.00;95060.38;5012325;28;20850;-73
2021/07/13 05:39:36;;;;;;;4.07;2.15;;;;;;;16.95;100.00;95065.13;5012605;28;20934;-73
2021/07/13 05:42:02;;;;;;;8.23;2.40;;;;;;;16.84;100.00;95064.38;5012458;28;20421;-73
2021/07/13 05:44:27;;;;;;;3.05;2.03;;;;;;;16.79;100.00;95069.22;5011102;28;20494;-73
2021/07/13 05:46:54;;;;;;;2.25;2.05;;;;;;;16.77;100.00;95068.56;5011496;28;20468;-75
2021/07/13 05:49:19;;;;;;;2.65;1.80;;;;;;;16.90;100.00;95068.16;4992907;28;20414;-73
2021/07/13 05:51:45;;;;;;;2.67;1.70;;;;;;;16.93;100.00;95073.91;4992726;28;20469;-73
2021/07/13 05:54:11;;;;;;;2.47;1.67;;;;;;;17.04;100.00;95085.94;4992645;28;20489;-73
2021/07/13 05:56:36;;;;;;;2.63;1.77;;;;;;;17.12;100.00;95083.38;4992291;28;20433;-73
2021/07/13 05:59:01;;;;;;;2.67;1.92;;;;;;;17.09;100.00;95088.94;4991350;28;20454;-73
2021/07/13 06:01:27;;;;;;;2.67;1.80;;;;;;;17.11;100.00;95086.16;4992540;28;20456;-72
2021/07/13 06:03:54;;;;;;;3.97;2.13;;;;;;;17.04;100.00;95091.16;4992500;28;20992;-72
2021/07/13 06:06:19;;;;;;;3.20;2.03;;;;;;;17.08;100.00;95091.69;5004481;28;20416;-72
2021/07/13 06:08:45;;;;;;;4.33;2.40;;;;;;;17.00;100.00;95097.66;5003897;28;20431;-73
2021/07/13 06:11:10;;;;;;;5.07;2.30;;;;;;;16.92;100.00;95098.44;5003629;28;20732;-73
2021/07/13 06:13:35;;;;;;;5.33;2.50;;;;;;;16.97;100.00;95100.59;5007466;28;20414;-70
2021/07/13 06:16:01;;;;;;;4.23;2.27;;;;;;;17.00;100.00;95095.06;5003388;28;20961;-74
2021/07/13 06:18:26;;;;;;;4.82;2.40;;;;;;;17.10;100.00;95098.41;5011819;28;20440;-75
2021/07/13 06:20:53;;;;;;;6.67;2.40;;;;;;;17.09;100.00;95102.00;5012052;28;20417;-73
2021/07/13 06:23:18;;;;;;;4.72;1.98;;;;;;;17.05;100.00;95113.72;5011793;28;20444;-74
2021/07/13 06:25:44;;;;;;;5.70;2.13;;;;;;;16.99;100.00;95110.91;5011396;28;20463;-75
2021/07/13 06:28:10;;;;;;;3.45;1.80;;;;;;;16.90;100.00;95108.22;5012005;28;20443;-72
2021/07/13 06:30:36;;;;;;;3.22;1.88;;;;;;;16.91;100.00;95102.03;5011185;28;20424;-72
2021/07/13 06:33:02;;;;;;;5.87;1.80;;;;;;;16.87;100.00;95105.06;5011743;28;20424;-73
2021/07/13 06:35:28;;;;;;;5.28;1.83;;;;;;;16.91;100.00;95111.69;5011623;28;20440;-73
2021/07/13 06:37:54;;;;;;;3.77;2.23;;;;;;;16.95;100.00;95120.84;5003512;28;20530;-74
2021/07/13 06:40:20;;;;;;;5.27;2.00;;;;;;;17.00;100.00;95117.78;5011622;28;20416;-76
2021/07/13 06:42:45;;;;;;;2.33;1.70;;;;;;;17.01;100.00;95114.19;5011487;28;20488;-72
2021/07/13 06:45:11;;;;;;;2.60;1.90;;;;;;;16.90;100.00;95120.47;5011549;28;20515;-76
2021/07/13 06:47:37;;;;;;;3.97;1.88;;;;;;;16.88;100.00;95110.16;5012026;28;20980;-76
2021/07/13 06:50:03;;;;;;;3.92;1.90;;;;;;;16.79;100.00;95105.81;5010579;28;20550;-75
2021/07/13 06:52:28;;;;;;;2.88;1.80;;;;;;;16.72;100.00;95099.53;5011506;28;20428;-75
2021/07/13 06:54:55;;;;;;;2.47;1.65;;;;;;;16.77;100.00;95104.34;5011742;28;20404;-77
2021/07/13 06:57:22;;;;;;;3.28;1.85;;;;;;;16.87;100.00;95118.16;5011155;28;20854;-75
2021/07/13 06:59:48;;;;;;;2.15;1.60;;;;;;;16.95;100.00;95117.44;5010039;28;20431;-76
2021/07/13 07:02:13;;;;;;;9.07;1.87;;;;;;;17.00;100.00;95125.63;5010105;28;20786;-76
2021/07/13 07:04:40;;;;;;;2.17;1.85;;;;;;;17.01;100.00;95132.50;5010939;28;21288;-75
2021/07/13 07:07:06;;;;;;;5.33;2.10;;;;;;;17.05;100.00;95131.22;5010864;28;20417;-76
2021/07/13 07:09:31;;;;;;;4.83;2.33;;;;;;;17.02;100.00;95132.38;5001419;28;20454;-75
2021/07/13 07:11:58;;;;;;;3.65;1.80;;;;;;;17.03;100.00;95139.22;4991509;28;20987;-75
2021/07/13 07:14:23;;;;;;;2.50;1.60;;;;;;;16.99;100.00;95139.69;4991614;28;20406;-75
2021/07/13 07:16:49;;;;;;;2.23;1.50;;;;;;;16.96;100.00;95140.81;4991317;28;20819;-74
2021/07/13 07:19:14;;;;;;;2.70;1.67;;;;;;;16.91;100.00;95138.66;5009470;28;20487;-75
2021/07/13 07:21:40;;;;;;;3.05;2.08;;;;;;;16.78;100.00;95130.34;5009855;28;20475;-75
2021/07/13 07:24:05;;;;;;;5.23;2.20;;;;;;;16.69;100.00;95131.22;5011667;28;20938;-74
2021/07/13 07:26:31;;;;;;;1.90;1.60;;;;;;;16.71;100.00;95131.88;5010692;28;20429;-76
2021/07/13 07:28:57;;;;;;;2.33;1.50;;;;;;;16.69;100.00;95132.03;5012476;28;20416;-76
2021/07/13 07:31:23;;;;;;;1.67;1.15;;;;;;;16.68;100.00;95125.16;5012352;28;20790;-76
2021/07/13 07:33:48;;;;;;;2.90;1.20;;;;;;;16.64;100.00;95120.38;5011890;28;20416;-76
2021/07/13 07:36:14;;;;;;;2.00;1.10;;;;;;;16.60;100.00;95108.56;5011002;28;20413;-76
2021/07/13 07:38:40;;;;;;;1.47;1.20;;;;;;;16.50;100.00;95113.88;5011025;28;20796;-76
2021/07/13 07:41:06;;;;;;;3.72;1.45;;;;;;;16.64;100.00;95131.66;5011193;28;20416;-76
2021/07/13 07:43:31;;;;;;;1.57;1.17;;;;;;;16.70;100.00;95123.22;5011121;28;20782;-76
2021/07/13 07:45:58;;;;;;;1.90;1.27;;;;;;;16.70;100.00;95120.59;5010974;28;20455;-77
2021/07/13 07:48:24;;;;;;;1.92;1.35;;;;;;;16.81;100.00;95116.97;5010700;28;20405;-76
2021/07/13 07:50:49;;;;;;;1.48;1.02;;;;;;;16.90;100.00;95113.44;5011086;28;20417;-76
2021/07/13 07:53:15;;;;;;;2.07;1.13;;;;;;;16.99;100.00;95119.59;5009737;28;20914;-76
2021/07/13 07:55:40;;;;;;;1.90;1.20;;;;;;;17.02;100.00;95118.44;5010620;28;20415;-76
2021/07/13 07:58:06;;;;;;;1.88;1.23;;;;;;;17.12;100.00;95122.59;5011446;28;20918;-75
2021/07/13 08:00:31;;;;;;;4.53;1.50;;;;;;;17.13;100.00;95124.28;5011123;28;20438;-75
2021/07/13 08:02:58;;;;;;;2.60;1.20;;;;;;;17.02;100.00;95134.97;5010412;28;20428;-76
2021/07/13 08:05:26;;;;;;;10.10;1.60;;;;;;;16.95;100.00;95128.72;5010547;28;20420;-76
2021/07/13 08:07:52;;;;;;;1.70;1.02;;;;;;;16.98;100.00;95130.19;5009629;28;20427;-75
2021/07/13 08:10:18;;;;;;;3.13;1.40;;;;;;;16.89;100.00;95145.81;5010972;28;20431;-74
2021/07/13 08:12:43;;;;;;;2.55;1.42;;;;;;;16.97;100.00;95131.97;5010863;28;20417;-77
2021/07/13 08:15:10;;;;;;;2.28;1.20;;;;;;;16.87;100.00;95139.06;5010624;28;20416;-75
2021/07/13 08:17:36;;;;;;;2.20;0.90;;;;;;;16.92;100.00;95137.66;5003022;28;20862;-74
2021/07/13 08:20:04;;;;;;;4.63;1.88;;;;;;;16.95;100.00;95131.31;4991136;28;20505;-75
2021/07/13 08:22:30;;;;;;;2.72;1.13;;;;;;;16.89;100.00;95124.06;4991309;28;20509;-75
2021/07/13 08:24:55;;;;;;;6.17;1.30;;;;;;;16.91;100.00;95116.91;4991185;28;20433;-73
2021/07/13 08:27:21;;;;;;;1.63;0.80;;;;;;;17.04;100.00;95112.09;4991145;28;20418;-77
2021/07/13 08:29:47;;;;;;;1.50;0.80;;;;;;;17.00;100.00;95115.16;4989879;28;20476;-78
2021/07/13 08:32:13;;;;;;;1.30;0.70;;;;;;;16.76;100.00;95121.00;4991366;28;20449;-78
2021/07/13 08:34:38;;;;;;;0.60;0.40;;;;;;;16.61;100.00;95126.75;4990088;28;21096;-76
2021/07/13 08:37:05;;;;;;;0.63;0.27;;;;;;;16.47;100.00;95129.88;4993983;28;20418;-77
2021/07/13 08:39:31;;;;;;;0.60;0.17;;;;;;;16.50;100.00;95136.56;4993490;28;20415;-77
2021/07/13 08:41:58;;;;;;;0.23;0.10;;;;;;;16.26;100.00;95131.91;4993442;28;20966;-78
2021/07/13 08:44:23;;;;;;;0.25;0.15;;;;;;;16.16;100.00;95134.56;4993132;28;20432;-76
2021/07/13 08:46:48;;;;;;;0.40;0.20;;;;;;;16.12;100.00;95128.81;5008649;28;20491;-77
2021/07/13 08:49:14;;;;;;;0.70;0.15;;;;;;;16.13;100.00;95130.47;5013881;28;20409;-75
2021/07/13 08:51:41;;;;;;;1.25;0.20;;;;;;;16.06;100.00;95139.06;5013743;28;20424;-76
2021/07/13 08:54:08;;;;;;;0.52;0.20;;;;;;;16.02;100.00;95156.78;5013563;28;20423;-76
2021/07/13 08:56:35;;;;;;;2.95;0.25;;;;;;;15.94;100.00;95161.91;5011903;28;20430;-76
2021/07/13 08:59:03;;;;;;;0.28;0.20;;;;;;;15.90;100.00;95173.59;5013800;28;20880;-77
2021/07/13 09:01:29;;;;;;;0.22;0.13;;;;;;;15.96;100.00;95180.88;5013417;28;20508;-78
2021/07/13 09:03:56;;;;;;;0.20;0.17;;;;;;;16.02;100.00;95179.47;5013482;28;20506;-79
2021/07/13 09:06:23;;;;;;;0.08;0.00;;;;;;;15.88;100.00;95191.22;5012737;28;20487;-79
2021/07/13 09:08:48;;;;;;;0.40;0.17;;;;;;;15.84;100.00;95210.75;5014319;28;20512;-79
2021/07/13 09:11:20;;;;;;;0.50;0.10;;;;;;;15.80;100.00;95212.00;5013606;28;20863;-79
2021/07/13 09:13:47;;;;;;;0.52;0.10;;;;;;;15.73;100.00;95216.94;5013463;28;20417;-77
2021/07/13 09:16:14;;;;;;;1.60;0.20;;;;;;;15.58;100.00;95224.38;5013034;28;20416;-76
2021/07/13 09:18:41;;;;;;;0.90;0.10;;;;;;;15.32;100.00;95224.13;5012856;28;20413;-76
2021/07/13 09:21:13;;;;;;;0.40;0.10;;;;;;;15.30;100.00;95230.44;5013247;28;20517;-76
2021/07/13 09:24:02;;;;;;;0.27;0.03;;;;;;;15.45;100.00;95224.66;5013134;28;20409;-75
2021/07/13 09:26:43;;;;;;;0.20;0.10;;;;;;;15.61;100.00;95234.53;5011560;28;20528;-77
2021/07/13 09:29:25;;;;;;;0.25;0.10;;;;;;;15.48;100.00;95234.81;5014066;28;20452;-77
2021/07/13 09:31:50;;;;;;;0.40;0.10;;;;;;;15.48;100.00;95240.03;5012273;28;20767;-77
2021/07/13 09:34:18;;;;;;;0.80;0.10;;;;;;;15.36;100.00;95248.16;5011647;28;20479;-77
2021/07/13 09:36:50;;;;;;;0.10;0.00;;;;;;;15.25;100.00;95259.56;5012606;28;20416;-77
2021/07/13 09:39:21;;;;;;;0.20;0.00;;;;;;;15.11;100.00;95255.56;5011607;28;20781;-77
2021/07/13 09:41:52;;;;;;;0.20;0.08;;;;;;;15.17;100.00;95238.56;5012752;28;20886;-77
2021/07/13 09:44:21;;;;;;;0.30;0.10;;;;;;;15.15;100.00;95217.00;5011447;28;20966;-78
2021/07/13 09:46:47;;;;;;;1.45;0.13;;;;;;;15.13;100.00;95232.78;5012082;28;20420;-77
2021/07/13 09:49:17;;;;;;;0.50;0.10;;;;;;;15.39;100.00;95238.28;5011350;28;20524;-77
2021/07/13 09:51:45;;;;;;;2.40;0.10;;;;;;;15.44;100.00;95246.50;5013531;28;20417;-77
2021/07/13 09:54:32;;;;;;;0.40;0.22;;;;;;;15.50;100.00;95237.31;5011639;28;20430;-77
2021/07/13 09:56:59;;;;;;;1.30;0.20;;;;;;;15.39;100.00;95245.28;5012160;28;20427;-77
2021/07/13 09:59:25;;;;;;;0.20;0.10;;;;;;;15.17;100.00;95255.03;5012963;28;20424;-79
2021/07/13 10:01:51;;;;;;;0.47;0.10;;;;;;;15.04;100.00;95238.81;5011274;28;20479;-77
2021/07/13 10:04:16;;;;;;;0.07;0.07;;;;;;;15.14;100.00;95234.44;5011041;28;20524;-77
2021/07/13 10:06:44;;;;;;;0.50;0.30;;;;;;;15.16;100.00;95240.31;5012054;28;20416;-77
2021/07/13 10:09:12;;;;;;;0.70;0.25;;;;;;;15.25;100.00;95221.25;5011031;28;20421;-77
2021/07/13 10:11:39;;;;;;;0.10;0.05;;;;;;;15.07;100.00;95194.22;5011056;28;20430;-77
2021/07/13 10:14:06;;;;;;;0.40;0.10;;;;;;;14.99;100.00;95192.28;5012197;28;20851;-77
2021/07/13 10:16:31;;;;;;;0.52;0.20;;;;;;;14.95;100.00;95190.09;4992671;28;20422;-77
2021/07/13 10:18:58;;;;;;;0.60;0.10;;;;;;;14.79;100.00;95182.78;5007707;28;20474;-77
2021/07/13 10:21:25;;;;;;;0.13;0.10;;;;;;;14.66;100.00;95187.47;5012024;28;20413;-77
2021/07/13 10:23:53;;;;;;;0.90;0.10;;;;;;;14.80;100.00;95202.72;5011919;28;20424;-77
2021/07/13 10:26:47;;;;;;;0.70;0.13;;;;;;;15.00;100.00;95220.00;5013653;28;20413;-79
2021/07/13 10:29:36;;;;;;;0.73;0.20;;;;;;;15.35;100.00;95218.63;5014138;28;20507;-77
2021/07/13 10:32:03;;;;;;;0.20;0.15;;;;;;;15.37;100.00;95239.38;5013109;28;20444;-76
2021/07/13 10:34:49;;;;;;;0.10;0.00;;;;;;;15.45;100.00;95240.31;5010912;28;20421;-75
2021/07/13 10:37:25;;;;;;;0.30;0.10;;;;;;;15.40;100.00;95254.75;5011902;28;20416;-76
2021/07/13 10:39:51;;;;;;;1.98;0.30;;;;;;;15.46;100.00;95255.03;5011845;28;20424;-75
2021/07/13 10:42:51;;;;;;;1.60;0.60;;;;;;;15.31;100.00;95256.38;5012001;28;20786;-76
2021/07/13 10:45:24;;;;;;;1.00;0.30;;;;;;;15.07;100.00;95246.38;5011602;28;20555;-75
2021/07/13 10:48:04;;;;;;;1.52;0.20;;;;;;;15.10;100.00;95251.31;5004001;28;20419;-77
2021/07/13 10:50:46;;;;;;;0.73;0.30;;;;;;;15.35;100.00;95259.53;4992291;28;20525;-78
2021/07/13 10:53:26;;;;;;;1.00;0.40;;;;;;;15.40;100.00;95273.00;4991740;28;20430;-76
2021/07/13 10:55:54;;;;;;;0.30;0.20;;;;;;;15.24;100.00;95266.56;4992628;28;20425;-78
2021/07/13 10:58:21;;;;;;;0.80;0.30;;;;;;;15.40;100.00;95265.19;4990111;28;20426;-76
2021/07/13 11:01:02;;;;;;;0.38;0.25;;;;;;;15.37;100.00;95268.06;4992064;28;20502;-77
2021/07/13 11:03:50;;;;;;;0.60;0.30;;;;;;;15.55;100.00;95248.13;4991800;28;20480;-77
2021/07/13 11:06:16;;;;;;;0.40;0.30;;;;;;;15.64;100.00;95246.47;4991282;28;20426;-76
2021/07/13 11:08:52;;;;;;;1.40;0.47;;;;;;;15.61;100.00;95252.81;4990404;28;20422;-76
2021/07/13 11:11:36;;;;;;;1.08;0.60;;;;;;;15.69;100.00;95254.75;4990355;28;20931;-76
2021/07/13 11:14:04;;;;;;;1.90;0.40;;;;;;;15.70;100.00;95265.03;4990299;28;20452;-76
2021/07/13 11:16:32;;;;;;;0.88;0.40;;;;;;;15.65;100.00;95272.47;4991318;28;20422;-76
2021/07/13 11:19:01;;;;;;;0.50;0.40;;;;;;;15.65;100.00;95269.88;5008040;28;20774;-75
2021/07/13 11:21:28;;;;;;;4.00;0.63;;;;;;;15.77;100.00;95261.88;5011033;28;20947;-75
2021/07/13 11:23:55;;;;;;;1.48;0.50;;;;;;;15.65;100.00;95258.56;5010836;28;20437;-75
2021/07/13 11:26:22;;;;;;;0.65;0.30;;;;;;;15.77;100.00;95249.66;5010676;28;20432;-76